aviador You're here:

VOBM Decoded Metar

in
Report Time2018-01-17 05:00:00
UTC Time2018-01-17 05:11:21
Flight Rules vfr VFR
Wind060° at 05 kt
W.Decomp.*RWY 08: 4.7 kt HW 1.7 kt LCW
W.Rank060° ranks 19
Current wind is above 060° avg. (4.3)
Visibility8000 m
Phenomena:N/A
Clouds:Few 015 Hf
Broken 080 Hf
Expected CloudBase > 6,000 ft AGL from Temp-Dew spread
Ceiling8,000 ft
Temp27°C
Dew Point12°C (39% RH)
Heat Index26.8°C
AAT25.8°C
QNH1018 hPa
Raw Report
METAR VOBM 170500Z 06005KT 8000 FEW015 BKN080 27/12 Q1018=####018000133####
SATH31 VTBB 170500 RRA

Extra information for VOBM:More info

Social comments